createdAt,value
2018-07-05T00:00:34.525Z,1005.74
2018-07-05T00:01:34.509Z,1005.71
2018-07-05T00:02:34.500Z,1005.72
2018-07-05T00:03:34.600Z,1005.72
2018-07-05T00:04:34.662Z,1005.74
2018-07-05T00:05:34.570Z,1005.73
2018-07-05T00:06:34.562Z,1005.70
2018-07-05T00:07:34.547Z,1005.73
2018-07-05T00:08:34.556Z,1005.72
2018-07-05T00:09:34.446Z,1005.76
2018-07-05T00:10:34.431Z,1005.75
2018-07-05T00:11:34.510Z,1005.76
2018-07-05T00:12:34.405Z,1005.78
2018-07-05T00:13:34.395Z,1005.77
2018-07-05T00:14:34.385Z,1005.79
2018-07-05T00:15:34.494Z,1005.76
2018-07-05T00:16:34.356Z,1005.78
2018-07-05T00:17:34.361Z,1005.80
2018-07-05T00:18:34.332Z,1005.76
2018-07-05T00:19:34.333Z,1005.77
2018-07-05T00:20:34.329Z,1005.80
2018-07-05T00:21:34.407Z,1005.82
2018-07-05T00:22:34.370Z,1005.83
2018-07-05T00:23:34.286Z,1005.84
2018-07-05T00:24:34.390Z,1005.83
2018-07-05T00:25:34.377Z,1005.83
2018-07-05T00:26:34.246Z,1005.81
2018-07-05T00:27:34.234Z,1005.78
2018-07-05T00:28:34.240Z,1005.82
2018-07-05T00:29:34.242Z,1005.80
2018-07-05T00:30:34.217Z,1005.83
2018-07-05T00:31:34.204Z,1005.86
2018-07-05T00:32:34.293Z,1005.90
2018-07-05T00:33:34.171Z,1005.87
2018-07-05T00:34:34.182Z,1005.89
2018-07-05T00:35:34.159Z,1005.88
2018-07-05T00:36:34.269Z,1005.90
2018-07-05T00:37:34.236Z,1005.87
2018-07-05T00:38:34.180Z,1005.84
2018-07-05T00:39:34.112Z,1005.84
2018-07-05T00:40:34.230Z,1005.83
2018-07-05T00:41:34.180Z,1005.83
2018-07-05T00:42:34.106Z,1005.87
2018-07-05T00:43:34.169Z,1005.90
2018-07-05T00:44:34.055Z,1005.92
2018-07-05T00:45:34.079Z,1005.84
2018-07-05T00:46:34.034Z,1005.83
2018-07-05T00:47:34.035Z,1005.84
2018-07-05T00:48:34.036Z,1005.83
2018-07-05T00:49:34.127Z,1005.84
2018-07-05T00:50:34.122Z,1005.81
2018-07-05T00:51:33.991Z,1005.87
2018-07-05T00:52:34.085Z,1005.83
2018-07-05T00:53:33.962Z,1005.82
2018-07-05T00:54:33.949Z,1005.88
2018-07-05T00:55:34.057Z,1005.79
2018-07-05T00:56:33.930Z,1005.83
2018-07-05T00:57:34.049Z,1005.80
2018-07-05T00:58:34.016Z,1005.80
2018-07-05T00:59:33.896Z,1005.83
2018-07-05T01:00:34.007Z,1005.82
2018-07-05T01:01:33.887Z,1005.88
2018-07-05T01:02:33.871Z,1005.84
2018-07-05T01:03:33.858Z,1005.81
2018-07-05T01:04:33.845Z,1005.86
2018-07-05T01:05:33.860Z,1005.79
2018-07-05T01:06:33.823Z,1005.77
2018-07-05T01:07:33.946Z,1005.84
2018-07-05T01:08:33.801Z,1005.88
2018-07-05T01:09:33.913Z,1005.89
2018-07-05T01:10:33.804Z,1005.91
2018-07-05T01:11:33.786Z,1005.88
2018-07-05T01:12:33.798Z,1005.91
2018-07-05T01:13:33.749Z,1005.89
2018-07-05T01:14:33.737Z,1005.89
2018-07-05T01:15:33.744Z,1005.92
2018-07-05T01:16:33.717Z,1005.94
2018-07-05T01:17:33.860Z,1005.94
2018-07-05T01:18:33.815Z,1005.94
2018-07-05T01:19:33.792Z,1005.95
2018-07-05T01:20:33.777Z,1005.93
2018-07-05T01:21:33.797Z,1005.89
2018-07-05T01:22:33.654Z,1005.89
2018-07-05T01:23:33.751Z,1005.86
2018-07-05T01:24:33.633Z,1005.88
2018-07-05T01:25:33.624Z,1005.83
2018-07-05T01:26:33.626Z,1005.90
2018-07-05T01:27:33.610Z,1005.88
2018-07-05T01:28:33.591Z,1005.84
2018-07-05T01:29:33.610Z,1005.80
2018-07-05T01:30:33.619Z,1005.81
2018-07-05T01:31:33.679Z,1005.85
2018-07-05T01:32:33.546Z,1005.82
2018-07-05T01:33:33.651Z,1005.88
2018-07-05T01:34:33.641Z,1005.89
2018-07-05T01:35:33.907Z,1005.91
2018-07-05T01:36:33.510Z,1005.90
2018-07-05T01:37:33.616Z,1005.87
2018-07-05T01:38:33.613Z,1005.86
2018-07-05T01:39:33.596Z,1005.84
2018-07-05T01:40:33.484Z,1005.86
2018-07-05T01:41:33.451Z,1005.84
2018-07-05T01:42:33.532Z,1005.85
2018-07-05T01:43:33.442Z,1005.82
2018-07-05T01:44:33.528Z,1005.83
2018-07-05T01:45:33.513Z,1005.82
2018-07-05T01:46:33.406Z,1005.88
2018-07-05T01:47:33.522Z,1005.90
2018-07-05T01:48:33.462Z,1005.83
2018-07-05T01:49:33.475Z,1005.90
2018-07-05T01:50:33.372Z,1005.87
2018-07-05T01:51:33.349Z,1005.93
2018-07-05T01:52:33.363Z,1005.89
2018-07-05T01:53:33.369Z,1005.91
2018-07-05T01:54:33.331Z,1005.97
2018-07-05T01:55:33.428Z,1005.98
2018-07-05T01:56:33.299Z,1005.97
2018-07-05T01:57:33.400Z,1005.94
2018-07-05T01:58:33.271Z,1005.94
2018-07-05T01:59:33.269Z,1005.90
2018-07-05T02:00:33.263Z,1005.93
2018-07-05T02:01:33.363Z,1005.93
2018-07-05T02:02:33.325Z,1005.91
2018-07-05T02:03:33.239Z,1005.94
2018-07-05T02:04:33.221Z,1005.94
2018-07-05T02:05:36.368Z,1005.98
2018-07-05T02:06:33.298Z,1005.96
2018-07-05T02:07:33.184Z,1006.00
2018-07-05T02:08:33.288Z,1005.96
2018-07-05T02:09:33.258Z,1005.98
2018-07-05T02:10:33.157Z,1005.93
2018-07-05T02:11:33.156Z,1005.89
2018-07-05T02:12:33.155Z,1005.89
2018-07-05T02:13:33.152Z,1005.83
2018-07-05T02:14:33.282Z,1005.79
2018-07-05T02:15:33.195Z,1005.76
2018-07-05T02:16:33.085Z,1005.78
2018-07-05T02:17:33.073Z,1005.79
2018-07-05T02:18:33.066Z,1005.78
2018-07-05T02:19:33.051Z,1005.81
2018-07-05T02:20:33.042Z,1005.82
2018-07-05T02:21:33.055Z,1005.81
2018-07-05T02:22:33.267Z,1005.79
2018-07-05T02:23:33.012Z,1005.80
2018-07-05T02:24:33.104Z,1005.76
2018-07-05T02:25:32.992Z,1005.76
2018-07-05T02:26:32.997Z,1005.79
2018-07-05T02:27:32.978Z,1005.79
2018-07-05T02:28:32.978Z,1005.74
2018-07-05T02:29:32.944Z,1005.76
2018-07-05T02:30:32.961Z,1005.79
2018-07-05T02:31:33.059Z,1005.80
2018-07-05T02:32:32.918Z,1005.80
2018-07-05T02:33:32.900Z,1005.81
2018-07-05T02:34:32.967Z,1005.78
2018-07-05T02:35:32.885Z,1005.77
2018-07-05T02:36:32.884Z,1005.75
2018-07-05T02:37:32.989Z,1005.71
2018-07-05T02:38:32.960Z,1005.71
2018-07-05T02:39:32.850Z,1005.73
2018-07-05T02:40:32.927Z,1005.73
2018-07-05T02:41:32.830Z,1005.75
2018-07-05T02:42:32.821Z,1005.72
2018-07-05T02:43:32.824Z,1005.72
2018-07-05T02:44:32.943Z,1005.73
2018-07-05T02:45:32.932Z,1005.70
2018-07-05T02:46:32.852Z,1005.68
2018-07-05T02:47:32.756Z,1005.67
2018-07-05T02:48:32.889Z,1005.67
2018-07-05T02:49:32.739Z,1005.65
2018-07-05T02:50:32.727Z,1005.67
2018-07-05T02:51:32.725Z,1005.61
2018-07-05T02:52:32.711Z,1005.65
2018-07-05T02:53:32.808Z,1005.63
2018-07-05T02:54:32.686Z,1005.60
2018-07-05T02:55:32.673Z,1005.62
2018-07-05T02:56:32.786Z,1005.60
2018-07-05T02:57:32.649Z,1005.60
2018-07-05T02:58:32.757Z,1005.57
2018-07-05T02:59:32.631Z,1005.57
2018-07-05T03:00:32.646Z,1005.54
2018-07-05T03:01:32.636Z,1005.57
2018-07-05T03:02:32.715Z,1005.52
2018-07-05T03:03:32.595Z,1005.52
2018-07-05T03:04:32.680Z,1005.51
2018-07-05T03:05:32.576Z,1005.45
2018-07-05T03:06:32.672Z,1005.45
2018-07-05T03:07:32.566Z,1005.45
2018-07-05T03:08:32.671Z,1005.46
2018-07-05T03:09:32.531Z,1005.48
2018-07-05T03:10:32.622Z,1005.43
2018-07-05T03:11:32.528Z,1005.49
2018-07-05T03:12:32.510Z,1005.48
2018-07-05T03:13:32.638Z,1005.46
2018-07-05T03:14:32.473Z,1005.46
2018-07-05T03:15:32.462Z,1005.47
2018-07-05T03:16:32.501Z,1005.49
2018-07-05T03:17:32.570Z,1005.46
2018-07-05T03:18:32.433Z,1005.42
2018-07-05T03:19:32.545Z,1005.42
2018-07-05T03:20:32.522Z,1005.40
2018-07-05T03:21:32.410Z,1005.39
2018-07-05T03:22:31.483Z,1005.40
2018-07-05T03:23:32.382Z,1005.43
2018-07-05T03:24:32.369Z,1005.45
2018-07-05T03:25:32.379Z,1005.46
2018-07-05T03:26:32.367Z,1005.44
2018-07-05T03:27:32.359Z,1005.46
2018-07-05T03:28:32.344Z,1005.42
2018-07-05T03:29:32.416Z,1005.45
2018-07-05T03:30:32.423Z,1005.39
2018-07-05T03:31:32.308Z,1005.42
2018-07-05T03:32:32.298Z,1005.44
2018-07-05T03:33:32.287Z,1005.46
2018-07-05T03:34:32.279Z,1005.49
2018-07-05T03:35:32.253Z,1005.49
2018-07-05T03:36:32.238Z,1005.52
2018-07-05T03:37:32.250Z,1005.50
2018-07-05T03:38:32.332Z,1005.49
2018-07-05T03:39:32.211Z,1005.47
2018-07-05T03:40:32.293Z,1005.44
2018-07-05T03:41:32.187Z,1005.52
2018-07-05T03:42:32.203Z,1005.51
2018-07-05T03:43:32.173Z,1005.51
2018-07-05T03:44:32.172Z,1005.51
2018-07-05T03:45:32.152Z,1005.50
2018-07-05T03:46:32.132Z,1005.51
2018-07-05T03:47:32.131Z,1005.51
2018-07-05T03:48:32.215Z,1005.54
2018-07-05T03:49:32.107Z,1005.52
2018-07-05T03:50:32.226Z,1005.54
2018-07-05T03:51:32.108Z,1005.54
2018-07-05T03:52:32.097Z,1005.56
2018-07-05T03:53:32.064Z,1005.57
2018-07-05T03:54:32.118Z,1005.54
2018-07-05T03:55:32.052Z,1005.59
2018-07-05T03:56:32.023Z,1005.60
2018-07-05T03:57:32.031Z,1005.59
2018-07-05T03:58:32.018Z,1005.59
2018-07-05T03:59:31.993Z,1005.59
2018-07-05T04:00:32.031Z,1005.59
2018-07-05T04:01:32.122Z,1005.56
2018-07-05T04:02:32.008Z,1005.59
2018-07-05T04:03:31.952Z,1005.56
2018-07-05T04:04:31.967Z,1005.59
2018-07-05T04:05:31.934Z,1005.61
2018-07-05T04:06:32.115Z,1005.63
2018-07-05T04:07:31.932Z,1005.59
2018-07-05T04:08:31.899Z,1005.61
2018-07-05T04:09:32.001Z,1005.62
2018-07-05T04:10:31.873Z,1005.60
2018-07-05T04:11:31.875Z,1005.62
2018-07-05T04:12:31.980Z,1005.60
2018-07-05T04:13:31.965Z,1005.60
2018-07-05T04:14:31.840Z,1005.62
2018-07-05T04:15:31.937Z,1005.59
2018-07-05T04:16:31.816Z,1005.60
2018-07-05T04:17:31.918Z,1005.60
2018-07-05T04:18:31.893Z,1005.61
2018-07-05T04:19:32.101Z,1005.60
2018-07-05T04:20:31.866Z,1005.59
2018-07-05T04:21:31.862Z,1005.58
2018-07-05T04:22:31.754Z,1005.60
2018-07-05T04:23:31.883Z,1005.63
2018-07-05T04:24:31.729Z,1005.61
2018-07-05T04:25:31.729Z,1005.65
2018-07-05T04:26:31.862Z,1005.61
2018-07-05T04:27:31.694Z,1005.65
2018-07-05T04:28:31.696Z,1005.64
2018-07-05T04:29:31.717Z,1005.63
2018-07-05T04:30:31.776Z,1005.66
2018-07-05T04:31:31.790Z,1005.66
2018-07-05T04:32:32.159Z,1005.67
2018-07-05T04:33:31.656Z,1005.67
2018-07-05T04:34:31.629Z,1005.67
2018-07-05T04:35:31.623Z,1005.69
2018-07-05T04:36:31.600Z,1005.68
2018-07-05T04:37:31.610Z,1005.66
2018-07-05T04:38:31.606Z,1005.69
2018-07-05T04:39:31.681Z,1005.72
2018-07-05T04:40:31.580Z,1005.69
2018-07-05T04:41:31.647Z,1005.66
2018-07-05T04:42:31.936Z,1005.67
2018-07-05T04:43:31.552Z,1005.69
2018-07-05T04:44:31.521Z,1005.72
2018-07-05T04:45:31.505Z,1005.70
2018-07-05T04:46:31.604Z,1005.71
2018-07-05T04:47:31.500Z,1005.71
2018-07-05T04:48:31.683Z,1005.71
2018-07-05T04:49:31.465Z,1005.67
2018-07-05T04:50:31.464Z,1005.69
2018-07-05T04:51:31.442Z,1005.72
2018-07-05T04:52:31.542Z,1005.69
2018-07-05T04:53:31.546Z,1005.71
2018-07-05T04:54:31.427Z,1005.71
2018-07-05T04:55:31.441Z,1005.74
2018-07-05T04:56:31.393Z,1005.74
2018-07-05T04:57:31.499Z,1005.76
2018-07-05T04:58:31.383Z,1005.74
2018-07-05T04:59:31.473Z,1005.74
2018-07-05T05:00:31.351Z,1005.74
2018-07-05T05:01:31.341Z,1005.72
2018-07-05T05:02:31.499Z,1005.72
2018-07-05T05:03:31.362Z,1005.67
2018-07-05T05:04:31.305Z,1005.67
2018-07-05T05:05:31.435Z,1005.65
2018-07-05T05:06:31.412Z,1005.61
2018-07-05T05:07:31.401Z,1005.63
2018-07-05T05:08:31.398Z,1005.65
2018-07-05T05:09:31.254Z,1005.66
2018-07-05T05:10:31.252Z,1005.68
2018-07-05T05:11:31.321Z,1005.71
2018-07-05T05:12:31.246Z,1005.74
2018-07-05T05:13:31.234Z,1005.78
2018-07-05T05:14:31.304Z,1005.81
2018-07-05T05:15:31.309Z,1005.80
2018-07-05T05:16:31.184Z,1005.79
2018-07-05T05:17:31.313Z,1005.82
2018-07-05T05:18:31.290Z,1005.81
2018-07-05T05:19:31.192Z,1005.79
2018-07-05T05:20:31.249Z,1005.81
2018-07-05T05:21:31.608Z,1005.81
2018-07-05T05:22:31.222Z,1005.78
2018-07-05T05:23:31.105Z,1005.80
2018-07-05T05:24:31.271Z,1005.80
2018-07-05T05:25:31.215Z,1005.78
2018-07-05T05:26:31.075Z,1005.80
2018-07-05T05:27:31.300Z,1005.81
2018-07-05T05:28:31.054Z,1005.74
2018-07-05T05:29:31.055Z,1005.76
2018-07-05T05:30:31.162Z,1005.76
2018-07-05T05:31:31.032Z,1005.76
2018-07-05T05:32:31.049Z,1005.73
2018-07-05T05:33:31.004Z,1005.75
2018-07-05T05:34:31.123Z,1005.76
2018-07-05T05:35:31.023Z,1005.77
2018-07-05T05:36:32.619Z,1005.78
2018-07-05T05:37:30.967Z,1005.81
2018-07-05T05:38:31.076Z,1005.79
2018-07-05T05:39:32.105Z,1005.80
2018-07-05T05:40:30.981Z,1005.81
2018-07-05T05:41:31.064Z,1005.80
2018-07-05T05:42:31.086Z,1005.83
2018-07-05T05:43:31.072Z,1005.82
2018-07-05T05:44:31.055Z,1005.86
2018-07-05T05:45:31.091Z,1005.85
2018-07-05T05:46:31.009Z,1005.89
2018-07-05T05:47:30.858Z,1005.89
2018-07-05T05:48:30.873Z,1005.84
2018-07-05T05:49:30.886Z,1005.89
2018-07-05T05:50:30.956Z,1005.92
2018-07-05T05:51:30.853Z,1005.93
2018-07-05T05:52:30.823Z,1005.95
2018-07-05T05:53:31.044Z,1005.97
2018-07-05T05:54:30.829Z,1005.98
2018-07-05T05:55:30.844Z,1005.94
2018-07-05T05:56:30.798Z,1005.98
2018-07-05T05:57:30.763Z,1006.00
2018-07-05T05:58:30.907Z,1006.02
2018-07-05T05:59:30.836Z,1006.03
2018-07-05T06:00:30.863Z,1006.02
2018-07-05T06:01:30.725Z,1006.00
2018-07-05T06:02:30.838Z,1006.00
2018-07-05T06:03:30.688Z,1005.96
2018-07-05T06:04:30.690Z,1005.95
2018-07-05T06:05:30.817Z,1005.93
2018-07-05T06:06:31.426Z,1005.94
2018-07-05T06:07:30.774Z,1005.91
2018-07-05T06:08:30.781Z,1005.87
2018-07-05T06:09:30.775Z,1005.86
2018-07-05T06:10:30.645Z,1005.86
2018-07-05T06:11:30.696Z,1005.87
2018-07-05T06:12:33.704Z,1005.88
2018-07-05T06:13:31.508Z,1005.89
2018-07-05T06:14:30.691Z,1005.89
2018-07-05T06:15:30.683Z,1005.90
2018-07-05T06:16:31.081Z,1005.87
2018-07-05T06:17:30.662Z,1005.85
2018-07-05T06:18:30.688Z,1005.87
2018-07-05T06:19:30.540Z,1005.82
2018-07-05T06:20:30.630Z,1005.83
2018-07-05T06:21:30.696Z,1005.82
2018-07-05T06:22:30.629Z,1005.80
2018-07-05T06:23:30.619Z,1005.78
2018-07-05T06:24:30.461Z,1005.77
2018-07-05T06:25:31.418Z,1005.77
2018-07-05T06:26:30.517Z,1005.83
2018-07-05T06:27:30.536Z,1005.81
2018-07-05T06:28:30.421Z,1005.76
2018-07-05T06:29:30.541Z,1005.75
2018-07-05T06:30:30.684Z,1005.74
2018-07-05T06:31:30.507Z,1005.75
2018-07-05T06:32:30.510Z,1005.72
2018-07-05T06:33:30.381Z,1005.76
2018-07-05T06:34:30.481Z,1005.76
2018-07-05T06:35:30.471Z,1005.80
2018-07-05T06:36:30.466Z,1005.84
2018-07-05T06:37:30.338Z,1005.82
2018-07-05T06:38:30.452Z,1005.81
2018-07-05T06:39:30.491Z,1005.86
2018-07-05T06:40:30.419Z,1005.81
2018-07-05T06:41:30.602Z,1005.84
2018-07-05T06:42:30.415Z,1005.82
2018-07-05T06:43:30.422Z,1005.83
2018-07-05T06:44:30.269Z,1005.85
2018-07-05T06:45:30.254Z,1005.80
2018-07-05T06:46:30.364Z,1005.83
2018-07-05T06:47:30.396Z,1005.81
2018-07-05T06:48:30.282Z,1005.77
2018-07-05T06:49:30.325Z,1005.82
2018-07-05T06:50:30.703Z,1005.85
2018-07-05T06:51:30.243Z,1005.77
2018-07-05T06:52:30.332Z,1005.79
2018-07-05T06:53:30.184Z,1005.78
2018-07-05T06:54:30.259Z,1005.79
2018-07-05T06:55:30.245Z,1005.79
2018-07-05T06:56:30.329Z,1005.82
2018-07-05T06:57:30.241Z,1005.88
2018-07-05T06:58:30.609Z,1005.85
2018-07-05T06:59:30.225Z,1005.84
2018-07-05T07:00:30.209Z,1005.83
2018-07-05T07:01:30.091Z,1005.83
2018-07-05T07:02:30.207Z,1005.85
2018-07-05T07:03:30.171Z,1005.89
2018-07-05T07:04:30.229Z,1005.91
2018-07-05T07:05:30.205Z,1005.97
2018-07-05T07:06:30.165Z,1005.99
2018-07-05T07:07:30.146Z,1005.98
2018-07-05T07:08:30.155Z,1005.99
2018-07-05T07:09:30.140Z,1005.97
2018-07-05T07:10:30.098Z,1005.95
2018-07-05T07:11:30.111Z,1006.01
2018-07-05T07:12:30.146Z,1005.96
2018-07-05T07:13:29.968Z,1005.95
2018-07-05T07:14:30.094Z,1005.95
2018-07-05T07:15:30.055Z,1005.91
2018-07-05T07:16:30.070Z,1005.93
2018-07-05T07:17:30.112Z,1005.95
2018-07-05T07:18:30.079Z,1005.97
2018-07-05T07:19:29.892Z,1005.98
2018-07-05T07:20:29.968Z,1005.98
2018-07-05T07:21:30.056Z,1005.96
2018-07-05T07:22:29.984Z,1006.00
2018-07-05T07:23:29.933Z,1006.02
2018-07-05T07:24:29.851Z,1006.02
2018-07-05T07:25:29.946Z,1006.00
2018-07-05T07:26:29.959Z,1006.07
2018-07-05T07:27:30.120Z,1006.01
2018-07-05T07:28:30.012Z,1006.00
2018-07-05T07:29:29.910Z,1006.02
2018-07-05T07:30:29.879Z,1005.98
2018-07-05T07:34:04.726Z,1006.01
2018-07-05T07:34:39.637Z,1006.00
2018-07-05T07:35:39.615Z,1006.01
2018-07-05T07:36:39.708Z,1005.97
2018-07-05T07:37:39.696Z,1005.99
2018-07-05T07:38:39.603Z,1005.96
2018-07-05T07:39:39.597Z,1005.97
2018-07-05T07:40:39.519Z,1006.00
2018-07-05T07:41:39.574Z,1006.03
2018-07-05T07:42:39.533Z,1006.03
2018-07-05T07:43:39.639Z,1006.05
2018-07-05T07:44:39.707Z,1006.03
2018-07-05T07:45:39.536Z,1006.06
2018-07-05T07:46:39.525Z,1006.10
2018-07-05T07:47:39.552Z,1006.10
2018-07-05T07:48:39.471Z,1006.12
2018-07-05T07:49:39.486Z,1006.13
2018-07-05T07:50:39.454Z,1006.14
2018-07-05T07:51:39.456Z,1006.16
2018-07-05T07:52:39.416Z,1006.17
2018-07-05T07:53:39.410Z,1006.18
2018-07-05T07:54:39.415Z,1006.19
2018-07-05T07:55:40.527Z,1006.11
2018-07-05T07:56:39.419Z,1006.17
2018-07-05T07:57:39.367Z,1006.23
2018-07-05T07:58:39.372Z,1006.18
2018-07-05T07:59:39.388Z,1006.20
2018-07-05T08:00:39.381Z,1006.18
2018-07-05T08:01:39.225Z,1006.18
2018-07-05T08:02:39.332Z,1006.18
2018-07-05T08:03:39.322Z,1006.15
2018-07-05T08:04:39.300Z,1006.15
2018-07-05T08:05:39.306Z,1006.14
2018-07-05T08:06:39.296Z,1006.10
2018-07-05T08:07:39.156Z,1006.09
2018-07-05T08:08:39.295Z,1006.14
2018-07-05T08:09:39.144Z,1006.13
2018-07-05T08:10:39.267Z,1006.12
2018-07-05T08:11:39.220Z,1006.13
2018-07-05T08:12:39.258Z,1006.09
2018-07-05T08:13:39.217Z,1006.11
2018-07-05T08:14:39.174Z,1006.10
2018-07-05T08:15:39.168Z,1006.05
2018-07-05T08:16:39.160Z,1006.05
2018-07-05T08:17:39.160Z,1006.04
2018-07-05T08:18:39.168Z,1006.08
2018-07-05T08:19:39.153Z,1006.06
2018-07-05T08:20:39.170Z,1006.07
2018-07-05T08:21:39.111Z,1006.09
2018-07-05T08:22:39.132Z,1006.05
2018-07-05T08:23:39.095Z,1006.09
2018-07-05T08:24:39.134Z,1006.08
2018-07-05T08:25:39.114Z,1006.06
2018-07-05T08:26:39.171Z,1006.04
2018-07-05T08:27:39.087Z,1006.05
2018-07-05T08:28:39.075Z,1006.08
2018-07-05T08:29:39.042Z,1006.02
2018-07-05T08:30:39.107Z,1006.05
2018-07-05T08:31:39.043Z,1006.06
2018-07-05T08:32:38.916Z,1006.03
2018-07-05T08:33:38.985Z,1006.04
2018-07-05T08:34:40.006Z,1005.97
2018-07-05T08:35:38.988Z,1005.96
2018-07-05T08:36:38.969Z,1006.00
2018-07-05T08:37:38.961Z,1005.98
2018-07-05T08:38:38.963Z,1005.97
2018-07-05T08:39:38.959Z,1005.95
2018-07-05T08:40:38.941Z,1005.94
2018-07-05T08:41:38.915Z,1005.97
2018-07-05T08:42:38.906Z,1005.96
2018-07-05T08:43:38.869Z,1005.97
2018-07-05T08:44:38.779Z,1005.94
2018-07-05T08:45:38.880Z,1005.96
2018-07-05T08:46:38.900Z,1005.98
2018-07-05T08:47:38.867Z,1005.99
2018-07-05T08:48:38.787Z,1006.01
2018-07-05T08:49:38.908Z,1005.96
2018-07-05T08:50:38.825Z,1006.02
2018-07-05T08:51:38.741Z,1005.97
2018-07-05T08:52:38.784Z,1005.99
2018-07-05T08:53:38.770Z,1006.02
2018-07-05T08:54:38.747Z,1006.00
2018-07-05T08:55:38.716Z,1005.96
2018-07-05T08:56:38.806Z,1005.94
2018-07-05T08:57:38.764Z,1005.92
2018-07-05T08:58:38.737Z,1005.91
2018-07-05T08:59:38.763Z,1005.94
2018-07-05T09:00:38.773Z,1005.92
2018-07-05T09:01:38.747Z,1005.94
2018-07-05T09:02:38.672Z,1005.93
2018-07-05T09:03:38.575Z,1005.92
2018-07-05T09:04:37.698Z,1005.96
2018-07-05T09:05:38.707Z,1005.91
2018-07-05T09:06:38.652Z,1005.90
2018-07-05T09:07:38.639Z,1005.93
2018-07-05T09:08:38.666Z,1005.93
2018-07-05T09:09:38.606Z,1005.89
2018-07-05T09:10:38.685Z,1005.83
2018-07-05T09:11:38.600Z,1005.84
2018-07-05T09:12:38.492Z,1005.86
2018-07-05T09:13:38.474Z,1005.86
2018-07-05T09:14:38.464Z,1005.87
2018-07-05T09:15:38.587Z,1005.88
2018-07-05T09:16:38.439Z,1005.89
2018-07-05T09:17:38.652Z,1005.88
2018-07-05T09:18:38.544Z,1005.83
2018-07-05T09:19:38.544Z,1005.87
2018-07-05T09:20:38.543Z,1005.86
2018-07-05T09:21:38.503Z,1005.82
2018-07-05T09:22:38.386Z,1005.87
2018-07-05T09:23:38.485Z,1005.82
2018-07-05T09:24:38.461Z,1005.87
2018-07-05T09:25:38.459Z,1005.85
2018-07-05T09:26:38.461Z,1005.86
2018-07-05T09:27:38.332Z,1005.82
2018-07-05T09:28:38.357Z,1005.81
2018-07-05T09:29:38.340Z,1005.80
2018-07-05T09:30:38.351Z,1005.79
2018-07-05T09:31:37.521Z,1005.82
2018-07-05T09:32:38.399Z,1005.79
2018-07-05T09:33:38.362Z,1005.81
2018-07-05T09:34:38.254Z,1005.80
2018-07-05T09:35:38.385Z,1005.79
2018-07-05T09:36:38.266Z,1005.78
2018-07-05T09:37:38.395Z,1005.84
2018-07-05T09:38:38.211Z,1005.83
2018-07-05T09:39:38.206Z,1005.84
2018-07-05T09:40:38.338Z,1005.86
2018-07-05T09:41:38.335Z,1005.87
2018-07-05T09:42:38.167Z,1005.82
2018-07-05T09:43:38.168Z,1005.80
2018-07-05T09:44:38.294Z,1005.81
2018-07-05T09:45:38.285Z,1005.84
2018-07-05T09:46:38.250Z,1005.86
2018-07-05T09:47:38.364Z,1005.89
2018-07-05T09:48:38.229Z,1005.85
2018-07-05T09:49:38.222Z,1005.83
2018-07-05T09:50:38.092Z,1005.84
2018-07-05T09:51:38.182Z,1005.84
2018-07-05T09:52:38.338Z,1005.84
2018-07-05T09:53:38.120Z,1005.85
2018-07-05T09:54:38.163Z,1005.83
2018-07-05T09:55:38.029Z,1005.84
2018-07-05T09:56:38.157Z,1005.87
2018-07-05T09:57:38.014Z,1005.89
2018-07-05T09:58:38.122Z,1005.89
2018-07-05T09:59:38.117Z,1005.86
2018-07-05T10:00:38.018Z,1005.88
2018-07-05T10:01:38.154Z,1005.88
2018-07-05T10:02:38.107Z,1005.90
2018-07-05T10:03:38.095Z,1005.91
2018-07-05T10:04:38.071Z,1005.89
2018-07-05T10:05:38.124Z,1005.90
2018-07-05T10:06:38.029Z,1005.88
2018-07-05T10:07:38.231Z,1005.87
2018-07-05T10:08:38.069Z,1005.89
2018-07-05T10:09:38.177Z,1005.90
2018-07-05T10:10:38.000Z,1005.85
2018-07-05T10:11:37.996Z,1005.86
2018-07-05T10:12:37.993Z,1005.88
2018-07-05T10:13:38.305Z,1005.87
2018-07-05T10:14:37.992Z,1005.90
2018-07-05T10:15:37.998Z,1005.89
2018-07-05T10:16:37.975Z,1005.86
2018-07-05T10:17:37.952Z,1005.88
2018-07-05T10:18:38.135Z,1005.86
2018-07-05T10:19:37.944Z,1005.89
2018-07-05T10:20:37.993Z,1005.84
2018-07-05T10:21:37.928Z,1005.90
2018-07-05T10:22:37.882Z,1005.89
2018-07-05T10:23:37.835Z,1005.87
2018-07-05T10:24:37.860Z,1005.87
2018-07-05T10:25:36.848Z,1005.83
2018-07-05T10:26:37.885Z,1005.82
2018-07-05T10:27:37.890Z,1005.83
2018-07-05T10:28:37.823Z,1005.86
2018-07-05T10:29:37.848Z,1005.83
2018-07-05T10:30:37.814Z,1005.85
2018-07-05T10:31:37.824Z,1005.89
2018-07-05T10:32:37.806Z,1005.84
2018-07-05T10:33:37.800Z,1005.81
2018-07-05T10:34:37.805Z,1005.82
2018-07-05T10:35:37.951Z,1005.82
2018-07-05T10:36:37.760Z,1005.83
2018-07-05T10:37:37.717Z,1005.82
2018-07-05T10:38:37.761Z,1005.75
2018-07-05T10:39:37.786Z,1005.77
2018-07-05T10:40:37.725Z,1005.72
2018-07-05T10:41:37.621Z,1005.74
2018-07-05T10:42:37.573Z,1005.74
2018-07-05T10:43:37.679Z,1005.73
2018-07-05T10:44:37.540Z,1005.71
2018-07-05T10:45:37.530Z,1005.71
2018-07-05T10:46:37.553Z,1005.78
2018-07-05T10:47:37.526Z,1005.73
2018-07-05T10:48:37.579Z,1005.76
2018-07-05T10:49:37.630Z,1005.78
2018-07-05T10:50:37.626Z,1005.78
2018-07-05T10:51:37.515Z,1005.82
2018-07-05T10:52:37.692Z,1005.79
2018-07-05T10:53:37.588Z,1005.83
2018-07-05T10:54:37.541Z,1005.76
2018-07-05T10:55:37.600Z,1005.80
2018-07-05T10:56:37.467Z,1005.79
2018-07-05T10:57:37.619Z,1005.83
2018-07-05T10:58:37.407Z,1005.78
2018-07-05T10:59:36.515Z,1005.83
2018-07-05T11:00:37.925Z,1005.80
2018-07-05T11:01:37.432Z,1005.76
2018-07-05T11:02:37.512Z,1005.81
2018-07-05T11:03:37.511Z,1005.83
2018-07-05T11:04:37.463Z,1005.85
2018-07-05T11:05:37.416Z,1005.81
2018-07-05T11:06:37.352Z,1005.82
2018-07-05T11:07:37.431Z,1005.81
2018-07-05T11:08:37.410Z,1005.81
2018-07-05T11:09:38.786Z,1005.84
2018-07-05T11:10:37.306Z,1005.82
2018-07-05T11:11:37.409Z,1005.80
2018-07-05T11:12:37.273Z,1005.82
2018-07-05T11:13:37.380Z,1005.80
2018-07-05T11:14:37.463Z,1005.80
2018-07-05T11:15:37.358Z,1005.82
2018-07-05T11:16:37.254Z,1005.81
2018-07-05T11:17:37.312Z,1005.86
2018-07-05T11:18:37.425Z,1005.85
2018-07-05T11:19:37.294Z,1005.83
2018-07-05T11:20:37.405Z,1005.87
2018-07-05T11:21:37.277Z,1005.86
2018-07-05T11:22:37.212Z,1005.87
2018-07-05T11:23:37.178Z,1005.85
2018-07-05T11:24:37.270Z,1005.84
2018-07-05T11:25:37.246Z,1005.84
2018-07-05T11:26:37.214Z,1005.84
2018-07-05T11:27:37.233Z,1005.85
2018-07-05T11:28:37.272Z,1005.85
2018-07-05T11:29:37.179Z,1005.83
2018-07-05T11:30:37.203Z,1005.83
2018-07-05T11:31:37.078Z,1005.81
2018-07-05T11:32:37.178Z,1005.77
2018-07-05T11:33:37.074Z,1005.77
2018-07-05T11:34:37.181Z,1005.73
2018-07-05T11:35:37.150Z,1005.76
2018-07-05T11:36:37.400Z,1005.71
2018-07-05T11:37:37.157Z,1005.69
2018-07-05T11:38:37.265Z,1005.74
2018-07-05T11:39:37.095Z,1005.71
2018-07-05T11:40:37.118Z,1005.72
2018-07-05T11:41:36.973Z,1005.69
2018-07-05T11:42:37.182Z,1005.65
2018-07-05T11:43:37.066Z,1005.66
2018-07-05T11:44:37.049Z,1005.71
2018-07-05T11:45:37.021Z,1005.62
2018-07-05T11:46:37.024Z,1005.65
2018-07-05T11:47:36.930Z,1005.61
2018-07-05T11:48:36.885Z,1005.59
2018-07-05T11:49:37.000Z,1005.58
2018-07-05T11:50:37.043Z,1005.54
2018-07-05T11:51:36.988Z,1005.52
2018-07-05T11:52:36.877Z,1005.57
2018-07-05T11:53:36.862Z,1005.62
2018-07-05T11:54:37.152Z,1005.54
2018-07-05T11:55:36.920Z,1005.52
2018-07-05T11:56:36.807Z,1005.56
2018-07-05T11:57:36.991Z,1005.54
2018-07-05T11:58:37.032Z,1005.58
2018-07-05T11:59:36.777Z,1005.60
2018-07-05T12:00:36.911Z,1005.57
2018-07-05T12:01:36.826Z,1005.58
2018-07-05T12:02:37.187Z,1005.49
2018-07-05T12:03:36.864Z,1005.52
2018-07-05T12:04:38.410Z,1005.52
2018-07-05T12:05:37.139Z,1005.49
2018-07-05T12:06:37.845Z,1005.54
2018-07-05T12:07:36.874Z,1005.49